createdAt,value
2019-03-25T00:00:39.623Z,4.47
2019-03-25T00:05:33.632Z,4.63
2019-03-25T00:10:27.744Z,4.50
2019-03-25T00:15:21.741Z,4.93
2019-03-25T00:20:15.785Z,4.80
2019-03-25T00:25:09.771Z,4.43
2019-03-25T00:30:04.662Z,4.07
2019-03-25T00:34:58.627Z,4.47
2019-03-25T00:39:52.593Z,4.47
2019-03-25T00:44:46.597Z,4.30
2019-03-25T00:49:40.592Z,4.30
2019-03-25T00:54:34.554Z,4.27
2019-03-25T00:59:28.831Z,5.23
2019-03-25T01:04:22.833Z,4.47
2019-03-25T01:09:16.811Z,4.60
2019-03-25T01:14:10.780Z,4.43
2019-03-25T01:19:04.739Z,4.67
2019-03-25T01:23:58.803Z,4.40
2019-03-25T01:28:52.774Z,4.83
2019-03-25T01:33:46.737Z,5.20
2019-03-25T01:38:40.698Z,5.20
2019-03-25T01:43:34.776Z,4.60
2019-03-25T01:48:28.739Z,5.03
2019-03-25T01:53:22.709Z,4.97
2019-03-25T01:58:16.769Z,6.10
2019-03-25T02:03:10.711Z,5.43
2019-03-25T02:08:04.681Z,5.20
2019-03-25T02:12:58.748Z,4.90
2019-03-25T02:17:52.719Z,5.30
2019-03-25T02:22:46.870Z,4.87
2019-03-25T02:27:40.938Z,5.50
2019-03-25T02:32:34.993Z,5.57
2019-03-25T02:37:29.268Z,5.47
2019-03-25T02:42:23.261Z,5.90
2019-03-25T02:47:17.513Z,5.73
2019-03-25T02:52:11.493Z,5.53
2019-03-25T02:57:05.436Z,6.17
2019-03-25T03:01:59.403Z,6.37
2019-03-25T03:06:53.493Z,6.23
2019-03-25T03:11:47.464Z,6.00
2019-03-25T03:16:41.545Z,6.17
2019-03-25T03:21:35.523Z,6.50
2019-03-25T03:26:29.477Z,6.80
2019-03-25T03:31:23.477Z,6.03
2019-03-25T03:36:17.512Z,7.03
2019-03-25T03:41:11.479Z,6.37
2019-03-25T03:46:05.635Z,6.17
2019-03-25T03:51:00.117Z,7.33
2019-03-25T03:55:54.180Z,6.40
2019-03-25T04:00:48.331Z,6.93
2019-03-25T04:05:42.365Z,6.60
2019-03-25T04:10:36.325Z,7.03
2019-03-25T04:15:30.590Z,6.63
2019-03-25T04:20:24.554Z,6.40
2019-03-25T04:25:18.530Z,7.70
2019-03-25T04:30:12.686Z,7.83
2019-03-25T04:35:06.958Z,7.23
2019-03-25T04:40:01.487Z,7.77
2019-03-25T04:44:55.425Z,7.70
2019-03-25T04:49:49.416Z,5.60
2019-03-25T04:54:43.389Z,4.17
2019-03-25T04:59:37.444Z,3.90
2019-03-25T05:04:31.409Z,3.90
2019-03-25T05:09:25.404Z,4.60
2019-03-25T05:14:19.404Z,3.90
2019-03-25T05:19:13.425Z,3.80
2019-03-25T05:24:07.431Z,4.00
2019-03-25T05:29:01.495Z,3.87
2019-03-25T05:33:55.455Z,3.17
2019-03-25T05:38:49.405Z,2.73
2019-03-25T05:43:43.366Z,3.10
2019-03-25T05:48:37.365Z,2.70
2019-03-25T05:53:31.325Z,3.13
2019-03-25T05:58:25.471Z,3.00
2019-03-25T06:03:19.629Z,2.53
2019-03-25T06:08:13.656Z,3.07
2019-03-25T06:13:07.638Z,2.80
2019-03-25T06:18:01.751Z,3.07
2019-03-25T06:22:55.829Z,2.93
2019-03-25T06:32:49.934Z,3.20
2019-03-25T06:37:43.953Z,3.50
2019-03-25T06:42:37.925Z,4.13
2019-03-25T06:47:31.962Z,3.00
2019-03-25T06:52:25.922Z,3.03
2019-03-25T06:57:25.503Z,3.30
2019-03-25T07:02:15.996Z,3.13
2019-03-25T07:07:10.130Z,4.00
2019-03-25T07:12:04.215Z,3.37
2019-03-25T07:16:58.182Z,3.63
2019-03-25T07:21:52.264Z,3.70
2019-03-25T07:26:46.433Z,3.50
2019-03-25T07:31:40.523Z,3.47
2019-03-25T07:36:34.527Z,3.30
2019-03-25T07:41:28.513Z,3.70
2019-03-25T07:46:22.579Z,3.80
2019-03-25T07:51:16.817Z,3.60
2019-03-25T07:56:10.886Z,3.30
2019-03-25T08:01:04.872Z,3.27
2019-03-25T08:05:58.939Z,4.00
2019-03-25T08:10:52.941Z,3.17
2019-03-25T08:15:47.042Z,2.80
2019-03-25T08:20:41.087Z,3.40
2019-03-25T08:25:35.139Z,3.63
2019-03-25T08:30:29.434Z,2.90
2019-03-25T08:35:23.396Z,2.90
2019-03-25T08:40:17.472Z,2.77
2019-03-25T08:45:11.590Z,2.93
2019-03-25T08:50:07.217Z,2.60
2019-03-25T08:55:01.182Z,2.83
2019-03-25T08:59:57.464Z,2.47
2019-03-25T09:04:51.220Z,1.90
2019-03-25T09:09:45.286Z,2.00
2019-03-25T09:14:39.227Z,1.40
2019-03-25T09:19:33.320Z,1.90
2019-03-25T09:24:27.288Z,1.60
2019-03-25T09:29:21.389Z,1.97
2019-03-25T09:34:15.686Z,1.50
2019-03-25T09:39:09.886Z,1.17
2019-03-25T09:44:04.095Z,1.80
2019-03-25T09:48:58.211Z,1.50
2019-03-25T09:53:52.168Z,1.57
2019-03-25T09:58:46.316Z,1.87
2019-03-25T10:03:40.401Z,1.60
2019-03-25T10:08:34.481Z,1.73
2019-03-25T10:13:28.500Z,1.73
2019-03-25T10:18:22.584Z,1.70
2019-03-25T10:23:16.554Z,1.97
2019-03-25T10:28:10.543Z,1.50
2019-03-25T10:33:04.643Z,1.50
2019-03-25T10:37:58.641Z,1.23
2019-03-25T10:42:52.594Z,1.10
2019-03-25T10:47:46.596Z,1.30
2019-03-25T10:52:40.803Z,0.98
2019-03-25T10:57:34.851Z,1.10
2019-03-25T11:02:29.332Z,1.42
2019-03-25T11:07:23.475Z,1.32
2019-03-25T11:12:17.484Z,1.50
2019-03-25T11:17:11.552Z,1.50
2019-03-25T11:22:05.648Z,1.32
2019-03-25T11:26:59.628Z,1.20
2019-03-25T11:31:53.609Z,1.37
2019-03-25T11:36:47.679Z,1.90
2019-03-25T11:41:41.760Z,2.08
2019-03-25T11:46:35.930Z,1.90
2019-03-25T11:51:30.087Z,1.40
2019-03-25T11:56:24.071Z,1.20
2019-03-25T12:01:18.136Z,1.02
2019-03-25T12:06:12.220Z,1.50
2019-03-25T12:11:06.294Z,1.57
2019-03-25T12:16:00.367Z,1.25
2019-03-25T12:20:54.389Z,1.40
2019-03-25T12:25:48.570Z,1.52
2019-03-25T12:30:42.634Z,1.30
2019-03-25T12:35:36.715Z,1.70
2019-03-25T12:40:30.895Z,1.60
2019-03-25T12:45:24.901Z,1.45
2019-03-25T12:50:19.326Z,1.40
2019-03-25T12:55:13.399Z,1.20
2019-03-25T13:00:07.790Z,1.10
2019-03-25T13:05:03.072Z,0.68
2019-03-25T13:09:57.159Z,0.90
2019-03-25T13:14:51.148Z,0.70
2019-03-25T13:19:45.137Z,0.90
2019-03-25T13:24:39.194Z,1.05
2019-03-25T13:29:33.282Z,1.00
2019-03-25T13:34:27.405Z,1.00
2019-03-25T13:39:21.430Z,1.25
2019-03-25T13:44:15.561Z,1.20
2019-03-25T13:49:09.577Z,1.50
2019-03-25T13:54:03.871Z,1.42
2019-03-25T13:58:58.077Z,1.30
2019-03-25T14:03:52.146Z,1.72
2019-03-25T14:08:46.110Z,1.32
2019-03-25T14:13:48.692Z,1.50
2019-03-25T14:18:35.981Z,1.90
2019-03-25T14:23:30.018Z,1.60
2019-03-25T14:28:23.991Z,1.60
2019-03-25T14:33:17.973Z,1.80
2019-03-25T14:38:12.068Z,2.15
2019-03-25T14:43:06.314Z,2.40
2019-03-25T14:48:00.556Z,2.10
2019-03-25T14:52:54.649Z,1.83
2019-03-25T14:57:48.740Z,1.90
2019-03-25T15:02:42.745Z,1.90
2019-03-25T15:07:36.893Z,1.85
2019-03-25T15:12:31.188Z,1.92
2019-03-25T15:17:25.190Z,1.95
2019-03-25T15:22:19.146Z,1.98
2019-03-25T15:27:13.140Z,2.20
2019-03-25T15:32:07.126Z,2.08
2019-03-25T15:37:01.345Z,2.47
2019-03-25T15:41:55.477Z,2.33
2019-03-25T15:46:55.641Z,1.90
2019-03-25T15:51:45.347Z,2.65
2019-03-25T15:56:39.367Z,2.63
2019-03-25T16:01:33.443Z,3.13
2019-03-25T16:06:27.407Z,3.60
2019-03-25T16:11:21.489Z,3.10
2019-03-25T16:16:15.541Z,2.30
2019-03-25T16:21:09.727Z,2.13
2019-03-25T16:26:04.139Z,2.50
2019-03-25T16:30:59.208Z,2.27
2019-03-25T16:35:53.427Z,2.37
2019-03-25T16:40:47.422Z,2.20
2019-03-25T16:45:41.403Z,2.33
2019-03-25T16:50:35.421Z,2.90
2019-03-25T16:55:29.508Z,2.63
2019-03-25T17:00:27.577Z,2.65
2019-03-25T17:05:19.501Z,2.93
2019-03-25T17:10:13.519Z,2.70
2019-03-25T17:15:08.187Z,2.20
2019-03-25T17:20:03.518Z,2.07
2019-03-25T17:24:57.812Z,2.50
2019-03-25T17:29:52.012Z,2.00
2019-03-25T17:34:46.003Z,1.63
2019-03-25T17:39:40.016Z,1.40
2019-03-25T17:44:34.101Z,1.40
2019-03-25T17:49:28.320Z,1.43
2019-03-25T17:54:22.692Z,1.40
2019-03-25T17:59:16.772Z,1.90
2019-03-25T18:04:10.875Z,1.73
2019-03-25T18:09:06.103Z,1.57
2019-03-25T18:14:00.093Z,1.43
2019-03-25T18:18:54.270Z,1.83
2019-03-25T18:23:48.286Z,1.70
2019-03-25T18:28:42.592Z,1.30
2019-03-25T18:33:36.691Z,1.80
2019-03-25T18:38:30.925Z,3.40
2019-03-25T18:43:25.053Z,2.63
2019-03-25T18:48:19.726Z,1.87
2019-03-25T18:53:13.899Z,2.00
2019-03-25T18:58:08.295Z,2.57
2019-03-25T19:03:03.200Z,1.93
2019-03-25T19:08:02.527Z,2.20
2019-03-25T19:12:56.568Z,2.00
2019-03-25T19:17:51.232Z,2.10
2019-03-25T19:22:45.423Z,1.97
2019-03-25T19:27:39.409Z,1.87
2019-03-25T19:32:33.401Z,2.30
2019-03-25T19:37:27.552Z,2.20
2019-03-25T19:42:21.620Z,2.07
2019-03-25T19:47:16.080Z,2.00
2019-03-25T19:52:10.344Z,2.50
2019-03-25T19:57:04.503Z,1.90
2019-03-25T20:01:58.463Z,1.87
2019-03-25T20:06:52.721Z,2.50
2019-03-25T20:11:46.890Z,2.40
2019-03-25T20:16:40.985Z,2.17
2019-03-25T20:21:35.127Z,2.53
2019-03-25T20:26:29.165Z,2.73
2019-03-25T20:31:23.227Z,3.10
2019-03-25T20:36:17.382Z,2.67
2019-03-25T20:41:11.429Z,2.53
2019-03-25T20:46:05.666Z,3.10
2019-03-25T20:50:59.857Z,2.77
2019-03-25T20:55:53.933Z,2.60
2019-03-25T21:01:03.634Z,3.83
2019-03-25T21:05:58.103Z,3.23
2019-03-25T21:10:52.193Z,2.90
2019-03-25T21:15:46.390Z,2.77
2019-03-25T21:20:40.403Z,3.00
2019-03-25T21:25:34.505Z,2.70
2019-03-25T21:30:28.679Z,3.00
2019-03-25T21:35:22.863Z,2.63
2019-03-25T21:40:17.061Z,2.83
2019-03-25T21:45:11.183Z,3.07
2019-03-25T21:50:05.931Z,2.90
2019-03-25T21:55:00.012Z,3.27
2019-03-25T21:59:54.089Z,2.80
2019-03-25T22:04:48.212Z,2.87
2019-03-25T22:09:42.193Z,3.10
2019-03-25T22:14:36.277Z,2.97
2019-03-25T22:19:30.440Z,2.77
2019-03-25T22:24:24.400Z,3.53
2019-03-25T22:29:18.487Z,3.10
2019-03-25T22:34:12.467Z,2.83
2019-03-25T22:39:06.597Z,3.37
2019-03-25T22:44:00.565Z,3.77
2019-03-25T22:48:54.588Z,3.60
2019-03-25T22:53:48.570Z,3.50
2019-03-25T22:58:42.662Z,3.70
2019-03-25T23:03:39.331Z,3.87
2019-03-25T23:08:34.537Z,3.37
2019-03-25T23:13:28.709Z,3.63
2019-03-25T23:18:22.788Z,3.60
2019-03-25T23:23:16.767Z,4.30
2019-03-25T23:28:10.835Z,4.07
2019-03-25T23:33:04.799Z,3.63
2019-03-25T23:37:58.993Z,3.77
2019-03-25T23:42:52.961Z,4.53
2019-03-25T23:47:47.036Z,4.37
2019-03-25T23:52:41.130Z,4.10
2019-03-25T23:57:35.084Z,4.67
